KSMF/SMF METAR and TAF weather

Enter ICAO airport designator
Station Type Date Time Source
KSMF METAR 2022/05/23 13:53 UTC NOAA

KSMF 231353Z 04003KT 10SM FEW250 16/07 A2994 RMK AO2 SLP137 T01560067 $


Station Type Date Time Source
KSMF Decoded METAR 2022/05/23 13:53 UTC NOAA

SACRAMENTO INTERNATIONAL AIRPORT, CA, United States (KSMF) 38-42N 121-36W 6M
May 23, 2022 - 09:53 AM EDT / 2022.05.23 1353 UTC
Wind: from the NE (040 degrees) at 3 MPH (3 KT):0
Visibility: 10 mile(s):0
Sky conditions: mostly clear
Temperature: 60.1 F (15.6 C)
Dew Point: 44.1 F (6.7 C)
Relative Humidity: 55%
Pressure (altimeter): 29.94 in. Hg (1013 hPa)
ob: KSMF 231353Z 04003KT 10SM FEW250 16/07 A2994 RMK AO2 SLP137 T01560067
cycle: 14

Station Type Date Time Source
KSMF TAF 2022/05/23 12:22 UTC NOAA

TAF KSMF 231120Z 2312/2412 VRB05KT P6SM FEW250 WS020/36030KT
FM231700 33015G23KT P6SM FEW250
FM240100 33010KT P6SM FEW250

Example: see airport list